sensor_id;sensor_type;location;lat;lon;timestamp;P1;durP1;ratioP1;P2;durP2;ratioP2
37903;SDS011;23738;50.422;18.758;2023-08-30T00:01:06;3.40;;;3.10;;
37903;SDS011;23738;50.422;18.758;2023-08-30T00:04:22;3.80;;;3.50;;
37903;SDS011;23738;50.422;18.758;2023-08-30T00:07:48;2.80;;;2.60;;
37903;SDS011;23738;50.422;18.758;2023-08-30T00:11:18;4.40;;;2.20;;
37903;SDS011;23738;50.422;18.758;2023-08-30T00:14:32;3.70;;;2.80;;
37903;SDS011;23738;50.422;18.758;2023-08-30T00:17:01;5.10;;;3.70;;
37903;SDS011;23738;50.422;18.758;2023-08-30T00:19:48;3.50;;;3.20;;
37903;SDS011;23738;50.422;18.758;2023-08-30T00:22:58;4.40;;;4.00;;
37903;SDS011;23738;50.422;18.758;2023-08-30T00:25:57;4.20;;;3.80;;
37903;SDS011;23738;50.422;18.758;2023-08-30T00:28:54;4.10;;;3.80;;
37903;SDS011;23738;50.422;18.758;2023-08-30T00:31:24;3.50;;;3.20;;
37903;SDS011;23738;50.422;18.758;2023-08-30T00:34:13;3.90;;;3.60;;
37903;SDS011;23738;50.422;18.758;2023-08-30T00:37:42;4.00;;;3.70;;
37903;SDS011;23738;50.422;18.758;2023-08-30T00:41:11;4.30;;;3.90;;
37903;SDS011;23738;50.422;18.758;2023-08-30T00:44:02;6.20;;;4.20;;
37903;SDS011;23738;50.422;18.758;2023-08-30T00:46:51;5.20;;;4.80;;
37903;SDS011;23738;50.422;18.758;2023-08-30T00:50:01;5.60;;;5.10;;
37903;SDS011;23738;50.422;18.758;2023-08-30T00:53:10;4.60;;;4.20;;
37903;SDS011;23738;50.422;18.758;2023-08-30T00:55:41;6.50;;;5.20;;
37903;SDS011;23738;50.422;18.758;2023-08-30T00:59:09;5.50;;;5.10;;
37903;SDS011;23738;50.422;18.758;2023-08-30T01:04:43;6.40;;;5.90;;
37903;SDS011;23738;50.422;18.758;2023-08-30T01:08:25;6.90;;;6.20;;
37903;SDS011;23738;50.422;18.758;2023-08-30T01:11:53;8.00;;;6.50;;
37903;SDS011;23738;50.422;18.758;2023-08-30T01:15:04;5.70;;;5.20;;
37903;SDS011;23738;50.422;18.758;2023-08-30T01:17:55;7.50;;;6.60;;
37903;SDS011;23738;50.422;18.758;2023-08-30T01:21:30;8.40;;;7.70;;
37903;SDS011;23738;50.422;18.758;2023-08-30T01:24:58;9.90;;;8.90;;
37903;SDS011;23738;50.422;18.758;2023-08-30T01:28:24;10.00;;;6.90;;
37903;SDS011;23738;50.422;18.758;2023-08-30T01:31:52;7.70;;;7.00;;
37903;SDS011;23738;50.422;18.758;2023-08-30T01:34:22;8.80;;;7.90;;
37903;SDS011;23738;50.422;18.758;2023-08-30T01:37:17;10.30;;;8.20;;
37903;SDS011;23738;50.422;18.758;2023-08-30T01:40:47;14.10;;;10.90;;
37903;SDS011;23738;50.422;18.758;2023-08-30T01:44:16;10.10;;;9.20;;
37903;SDS011;23738;50.422;18.758;2023-08-30T01:47:55;9.10;;;8.20;;
37903;SDS011;23738;50.422;18.758;2023-08-30T01:51:22;14.90;;;9.30;;
37903;SDS011;23738;50.422;18.758;2023-08-30T01:54:00;12.00;;;10.90;;
37903;SDS011;23738;50.422;18.758;2023-08-30T01:57:27;13.60;;;12.40;;
37903;SDS011;23738;50.422;18.758;2023-08-30T02:00:54;13.20;;;9.90;;
37903;SDS011;23738;50.422;18.758;2023-08-30T02:04:23;11.50;;;10.50;;
37903;SDS011;23738;50.422;18.758;2023-08-30T02:07:56;16.10;;;9.30;;
37903;SDS011;23738;50.422;18.758;2023-08-30T02:10:45;13.00;;;11.80;;
37903;SDS011;23738;50.422;18.758;2023-08-30T02:13:21;13.90;;;12.60;;
37903;SDS011;23738;50.422;18.758;2023-08-30T02:16:30;11.10;;;10.00;;
37903;SDS011;23738;50.422;18.758;2023-08-30T02:19:01;12.50;;;10.10;;
37903;SDS011;23738;50.422;18.758;2023-08-30T02:22:11;11.10;;;9.90;;
37903;SDS011;23738;50.422;18.758;2023-08-30T02:25:20;11.80;;;10.50;;
37903;SDS011;23738;50.422;18.758;2023-08-30T02:28:15;12.00;;;10.80;;
37903;SDS011;23738;50.422;18.758;2023-08-30T02:31:11;9.30;;;8.40;;
37903;SDS011;23738;50.422;18.758;2023-08-30T02:33:49;11.90;;;6.60;;
37903;SDS011;23738;50.422;18.758;2023-08-30T02:36:19;9.10;;;8.20;;
37903;SDS011;23738;50.422;18.758;2023-08-30T02:39:32;8.20;;;7.40;;
37903;SDS011;23738;50.422;18.758;2023-08-30T02:42:41;9.10;;;8.30;;
37903;SDS011;23738;50.422;18.758;2023-08-30T02:45:11;7.40;;;6.70;;
37903;SDS011;23738;50.422;18.758;2023-08-30T02:47:40;6.40;;;5.70;;
37903;SDS011;23738;50.422;18.758;2023-08-30T02:51:17;9.00;;;7.10;;
37903;SDS011;23738;50.422;18.758;2023-08-30T02:54:35;8.10;;;7.40;;
37903;SDS011;23738;50.422;18.758;2023-08-30T02:57:05;7.80;;;7.10;;
37903;SDS011;23738;50.422;18.758;2023-08-30T03:00:16;7.90;;;6.90;;
37903;SDS011;23738;50.422;18.758;2023-08-30T03:03:14;6.90;;;5.30;;
37903;SDS011;23738;50.422;18.758;2023-08-30T03:06:22;6.70;;;5.70;;
37903;SDS011;23738;50.422;18.758;2023-08-30T03:09:22;7.40;;;6.50;;
37903;SDS011;23738;50.422;18.758;2023-08-30T03:12:41;7.20;;;6.50;;
37903;SDS011;23738;50.422;18.758;2023-08-30T03:15:19;6.20;;;5.60;;
37903;SDS011;23738;50.422;18.758;2023-08-30T03:18:46;4.00;;;3.60;;
37903;SDS011;23738;50.422;18.758;2023-08-30T03:24:28;4.00;;;3.60;;
37903;SDS011;23738;50.422;18.758;2023-08-30T03:27:00;4.00;;;3.70;;
37903;SDS011;23738;50.422;18.758;2023-08-30T03:30:18;8.90;;;5.20;;
37903;SDS011;23738;50.422;18.758;2023-08-30T03:33:28;7.20;;;5.60;;
37903;SDS011;23738;50.422;18.758;2023-08-30T03:37:09;8.10;;;7.20;;
37903;SDS011;23738;50.422;18.758;2023-08-30T03:40:39;7.20;;;6.50;;
37903;SDS011;23738;50.422;18.758;2023-08-30T03:44:08;8.60;;;7.80;;
37903;SDS011;23738;50.422;18.758;2023-08-30T03:47:35;9.50;;;8.60;;
37903;SDS011;23738;50.422;18.758;2023-08-30T03:51:04;8.00;;;5.90;;
37903;SDS011;23738;50.422;18.758;2023-08-30T03:54:34;8.50;;;6.20;;
37903;SDS011;23738;50.422;18.758;2023-08-30T03:57:45;8.40;;;6.00;;
37903;SDS011;23738;50.422;18.758;2023-08-30T04:00:55;6.20;;;5.60;;
37903;SDS011;23738;50.422;18.758;2023-08-30T04:03:26;6.40;;;5.80;;
37903;SDS011;23738;50.422;18.758;2023-08-30T04:06:00;5.80;;;5.30;;
37903;SDS011;23738;50.422;18.758;2023-08-30T04:08:51;4.70;;;4.20;;
37903;SDS011;23738;50.422;18.758;2023-08-30T04:12:20;4.60;;;3.70;;
37903;SDS011;23738;50.422;18.758;2023-08-30T04:15:56;5.40;;;4.30;;
37903;SDS011;23738;50.422;18.758;2023-08-30T04:19:42;3.20;;;2.90;;
37903;SDS011;23738;50.422;18.758;2023-08-30T04:23:22;3.10;;;2.70;;
37903;SDS011;23738;50.422;18.758;2023-08-30T04:26:51;2.60;;;2.00;;
37903;SDS011;23738;50.422;18.758;2023-08-30T04:30:26;2.50;;;1.70;;
37903;SDS011;23738;50.422;18.758;2023-08-30T04:33:53;1.60;;;1.50;;
37903;SDS011;23738;50.422;18.758;2023-08-30T04:37:22;1.80;;;1.70;;
37903;SDS011;23738;50.422;18.758;2023-08-30T04:40:32;2.40;;;2.10;;
37903;SDS011;23738;50.422;18.758;2023-08-30T04:44:05;1.40;;;1.30;;
37903;SDS011;23738;50.422;18.758;2023-08-30T04:47:35;1.60;;;1.40;;
37903;SDS011;23738;50.422;18.758;2023-08-30T04:51:10;1.50;;;1.30;;
37903;SDS011;23738;50.422;18.758;2023-08-30T04:54:40;1.50;;;1.10;;
37903;SDS011;23738;50.422;18.758;2023-08-30T04:58:09;1.30;;;0.80;;
37903;SDS011;23738;50.422;18.758;2023-08-30T05:01:39;1.00;;;0.80;;
37903;SDS011;23738;50.422;18.758;2023-08-30T05:05:06;1.20;;;0.80;;
37903;SDS011;23738;50.422;18.758;2023-08-30T05:08:37;1.10;;;1.00;;
37903;SDS011;23738;50.422;18.758;2023-08-30T05:11:49;0.70;;;0.60;;
37903;SDS011;23738;50.422;18.758;2023-08-30T05:14:38;1.10;;;0.50;;
37903;SDS011;23738;50.422;18.758;2023-08-30T05:18:08;1.80;;;0.40;;
37903;SDS011;23738;50.422;18.758;2023-08-30T05:21:15;1.70;;;0.70;;
37903;SDS011;23738;50.422;18.758;2023-08-30T05:24:44;0.70;;;0.40;;
37903;SDS011;23738;50.422;18.758;2023-08-30T05:28:14;0.60;;;0.40;;
37903;SDS011;23738;50.422;18.758;2023-08-30T05:31:43;0.90;;;0.50;;
37903;SDS011;23738;50.422;18.758;2023-08-30T05:35:04;1.20;;;0.60;;
37903;SDS011;23738;50.422;18.758;2023-08-30T05:38:49;1.70;;;0.40;;
37903;SDS011;23738;50.422;18.758;2023-08-30T05:42:23;0.50;;;0.40;;
37903;SDS011;23738;50.422;18.758;2023-08-30T05:45:53;0.80;;;0.60;;
37903;SDS011;23738;50.422;18.758;2023-08-30T05:49:28;0.60;;;0.60;;
37903;SDS011;23738;50.422;18.758;2023-08-30T05:52:57;1.00;;;0.70;;
37903;SDS011;23738;50.422;18.758;2023-08-30T05:56:27;1.00;;;0.70;;
37903;SDS011;23738;50.422;18.758;2023-08-30T05:59:56;2.00;;;0.80;;
37903;SDS011;23738;50.422;18.758;2023-08-30T06:03:26;0.80;;;0.80;;
37903;SDS011;23738;50.422;18.758;2023-08-30T06:06:55;0.90;;;0.80;;
37903;SDS011;23738;50.422;18.758;2023-08-30T06:10:06;1.00;;;0.70;;
37903;SDS011;23738;50.422;18.758;2023-08-30T06:13:35;1.10;;;0.90;;
37903;SDS011;23738;50.422;18.758;2023-08-30T06:17:05;1.10;;;0.90;;
37903;SDS011;23738;50.422;18.758;2023-08-30T06:20:34;2.90;;;1.10;;
37903;SDS011;23738;50.422;18.758;2023-08-30T06:24:03;1.20;;;0.80;;
37903;SDS011;23738;50.422;18.758;2023-08-30T06:27:30;1.20;;;0.70;;
37903;SDS011;23738;50.422;18.758;2023-08-30T06:31:05;1.10;;;1.00;;
37903;SDS011;23738;50.422;18.758;2023-08-30T06:34:35;1.50;;;1.10;;
37903;SDS011;23738;50.422;18.758;2023-08-30T06:38:04;1.90;;;1.00;;
37903;SDS011;23738;50.422;18.758;2023-08-30T06:41:33;1.40;;;0.90;;
37903;SDS011;23738;50.422;18.758;2023-08-30T06:45:02;1.10;;;1.00;;
37903;SDS011;23738;50.422;18.758;2023-08-30T06:48:32;1.10;;;1.00;;
37903;SDS011;23738;50.422;18.758;2023-08-30T06:52:01;2.80;;;1.50;;
37903;SDS011;23738;50.422;18.758;2023-08-30T06:55:30;1.70;;;1.10;;
37903;SDS011;23738;50.422;18.758;2023-08-30T06:59:05;1.40;;;1.00;;
37903;SDS011;23738;50.422;18.758;2023-08-30T07:01:53;1.40;;;1.20;;
37903;SDS011;23738;50.422;18.758;2023-08-30T07:04:42;1.20;;;1.10;;
37903;SDS011;23738;50.422;18.758;2023-08-30T07:08:12;4.40;;;1.30;;
37903;SDS011;23738;50.422;18.758;2023-08-30T07:11:43;2.70;;;1.30;;
37903;SDS011;23738;50.422;18.758;2023-08-30T07:15:13;1.30;;;1.20;;
37903;SDS011;23738;50.422;18.758;2023-08-30T07:18:21;2.00;;;1.30;;
37903;SDS011;23738;50.422;18.758;2023-08-30T07:21:50;2.20;;;2.00;;
37903;SDS011;23738;50.422;18.758;2023-08-30T07:25:20;1.90;;;1.30;;
37903;SDS011;23738;50.422;18.758;2023-08-30T07:28:49;5.90;;;0.90;;
37903;SDS011;23738;50.422;18.758;2023-08-30T07:32:18;1.70;;;1.40;;
37903;SDS011;23738;50.422;18.758;2023-08-30T07:35:47;1.50;;;1.30;;
37903;SDS011;23738;50.422;18.758;2023-08-30T07:39:16;2.00;;;1.00;;
37903;SDS011;23738;50.422;18.758;2023-08-30T07:42:46;1.70;;;1.00;;
37903;SDS011;23738;50.422;18.758;2023-08-30T07:46:15;5.40;;;1.40;;
37903;SDS011;23738;50.422;18.758;2023-08-30T07:49:34;1.40;;;1.30;;
37903;SDS011;23738;50.422;18.758;2023-08-30T07:52:23;1.40;;;1.20;;
37903;SDS011;23738;50.422;18.758;2023-08-30T07:55:53;1.70;;;1.30;;
37903;SDS011;23738;50.422;18.758;2023-08-30T07:58:53;3.10;;;1.50;;
37903;SDS011;23738;50.422;18.758;2023-08-30T08:01:47;1.40;;;1.20;;
37903;SDS011;23738;50.422;18.758;2023-08-30T08:04:56;1.60;;;1.50;;
37903;SDS011;23738;50.422;18.758;2023-08-30T08:08:25;1.60;;;1.10;;
37903;SDS011;23738;50.422;18.758;2023-08-30T08:11:55;1.30;;;0.90;;
37903;SDS011;23738;50.422;18.758;2023-08-30T08:15:27;0.90;;;0.80;;
37903;SDS011;23738;50.422;18.758;2023-08-30T08:18:16;1.10;;;0.80;;
37903;SDS011;23738;50.422;18.758;2023-08-30T08:21:45;1.00;;;0.90;;
37903;SDS011;23738;50.422;18.758;2023-08-30T08:25:15;0.60;;;0.60;;
37903;SDS011;23738;50.422;18.758;2023-08-30T08:28:33;0.70;;;0.50;;
37903;SDS011;23738;50.422;18.758;2023-08-30T08:31:42;2.40;;;0.50;;
37903;SDS011;23738;50.422;18.758;2023-08-30T08:35:12;0.40;;;0.40;;
37903;SDS011;23738;50.422;18.758;2023-08-30T08:38:42;0.40;;;0.30;;
37903;SDS011;23738;50.422;18.758;2023-08-30T08:42:11;0.10;;;0.10;;
37903;SDS011;23738;50.422;18.758;2023-08-30T08:45:40;0.10;;;0.10;;
37903;SDS011;23738;50.422;18.758;2023-08-30T08:49:11;0.60;;;0.10;;
37903;SDS011;23738;50.422;18.758;2023-08-30T08:52:18;0.10;;;0.10;;
37903;SDS011;23738;50.422;18.758;2023-08-30T08:55:48;0.40;;;0.20;;
37903;SDS011;23738;50.422;18.758;2023-08-30T08:59:17;0.20;;;0.20;;
37903;SDS011;23738;50.422;18.758;2023-08-30T09:02:47;0.50;;;0.30;;
37903;SDS011;23738;50.422;18.758;2023-08-30T09:06:16;0.30;;;0.20;;
37903;SDS011;23738;50.422;18.758;2023-08-30T09:09:55;0.50;;;0.30;;
37903;SDS011;23738;50.422;18.758;2023-08-30T09:13:27;0.90;;;0.30;;
37903;SDS011;23738;50.422;18.758;2023-08-30T09:16:57;0.60;;;0.30;;
37903;SDS011;23738;50.422;18.758;2023-08-30T09:20:24;0.40;;;0.30;;
37903;SDS011;23738;50.422;18.758;2023-08-30T09:23:59;0.20;;;0.10;;
37903;SDS011;23738;50.422;18.758;2023-08-30T09:27:32;0.10;;;0.10;;
37903;SDS011;23738;50.422;18.758;2023-08-30T09:31:05;1.00;;;0.20;;
37903;SDS011;23738;50.422;18.758;2023-08-30T09:34:34;0.40;;;0.30;;
37903;SDS011;23738;50.422;18.758;2023-08-30T09:38:04;0.20;;;0.20;;
37903;SDS011;23738;50.422;18.758;2023-08-30T09:41:33;0.10;;;0.10;;
37903;SDS011;23738;50.422;18.758;2023-08-30T09:45:02;0.50;;;0.20;;
37903;SDS011;23738;50.422;18.758;2023-08-30T09:48:49;0.10;;;0.10;;
37903;SDS011;23738;50.422;18.758;2023-08-30T09:52:19;0.20;;;0.20;;
37903;SDS011;23738;50.422;18.758;2023-08-30T09:55:48;0.20;;;0.20;;
37903;SDS011;23738;50.422;18.758;2023-08-30T10:02:30;0.30;;;0.20;;
37903;SDS011;23738;50.422;18.758;2023-08-30T10:05:59;0.30;;;0.30;;
37903;SDS011;23738;50.422;18.758;2023-08-30T10:09:34;0.30;;;0.30;;
37903;SDS011;23738;50.422;18.758;2023-08-30T10:13:18;0.60;;;0.40;;
37903;SDS011;23738;50.422;18.758;2023-08-30T10:17:01;0.30;;;0.30;;
37903;SDS011;23738;50.422;18.758;2023-08-30T10:20:30;0.30;;;0.30;;
37903;SDS011;23738;50.422;18.758;2023-08-30T10:23:59;0.80;;;0.70;;
37903;SDS011;23738;50.422;18.758;2023-08-30T10:27:28;0.30;;;0.30;;
37903;SDS011;23738;50.422;18.758;2023-08-30T10:30:57;0.20;;;0.20;;
37903;SDS011;23738;50.422;18.758;2023-08-30T10:34:31;0.80;;;0.40;;
37903;SDS011;23738;50.422;18.758;2023-08-30T10:37:57;0.50;;;0.50;;
37903;SDS011;23738;50.422;18.758;2023-08-30T10:41:56;0.30;;;0.30;;
37903;SDS011;23738;50.422;18.758;2023-08-30T10:45:25;0.30;;;0.30;;
37903;SDS011;23738;50.422;18.758;2023-08-30T10:48:52;0.40;;;0.30;;
37903;SDS011;23738;50.422;18.758;2023-08-30T10:52:21;0.40;;;0.40;;
37903;SDS011;23738;50.422;18.758;2023-08-30T10:59:17;2.70;;;0.40;;
37903;SDS011;23738;50.422;18.758;2023-08-30T11:02:58;1.10;;;0.50;;
37903;SDS011;23738;50.422;18.758;2023-08-30T11:06:27;4.20;;;1.60;;
37903;SDS011;23738;50.422;18.758;2023-08-30T11:09:57;0.40;;;0.40;;
37903;SDS011;23738;50.422;18.758;2023-08-30T11:13:27;0.30;;;0.30;;
37903;SDS011;23738;50.422;18.758;2023-08-30T11:16:56;1.70;;;0.40;;
37903;SDS011;23738;50.422;18.758;2023-08-30T11:20:26;0.20;;;0.20;;
37903;SDS011;23738;50.422;18.758;2023-08-30T11:23:56;0.70;;;0.60;;
37903;SDS011;23738;50.422;18.758;2023-08-30T11:27:25;0.40;;;0.30;;
37903;SDS011;23738;50.422;18.758;2023-08-30T11:30:54;0.30;;;0.30;;
37903;SDS011;23738;50.422;18.758;2023-08-30T11:34:24;1.90;;;0.50;;
37903;SDS011;23738;50.422;18.758;2023-08-30T11:38:04;0.70;;;0.30;;
37903;SDS011;23738;50.422;18.758;2023-08-30T11:41:33;0.50;;;0.30;;
37903;SDS011;23738;50.422;18.758;2023-08-30T11:45:17;0.30;;;0.30;;
37903;SDS011;23738;50.422;18.758;2023-08-30T11:48:47;0.50;;;0.50;;
37903;SDS011;23738;50.422;18.758;2023-08-30T11:52:16;1.00;;;0.80;;
37903;SDS011;23738;50.422;18.758;2023-08-30T11:55:45;0.50;;;0.50;;
37903;SDS011;23738;50.422;18.758;2023-08-30T11:59:19;0.50;;;0.50;;
37903;SDS011;23738;50.422;18.758;2023-08-30T12:02:48;0.60;;;0.50;;
37903;SDS011;23738;50.422;18.758;2023-08-30T12:06:17;0.70;;;0.50;;
37903;SDS011;23738;50.422;18.758;2023-08-30T12:09:46;0.60;;;0.40;;
37903;SDS011;23738;50.422;18.758;2023-08-30T12:13:23;0.30;;;0.30;;
37903;SDS011;23738;50.422;18.758;2023-08-30T12:16:50;0.50;;;0.40;;
37903;SDS011;23738;50.422;18.758;2023-08-30T12:20:19;1.70;;;0.40;;
37903;SDS011;23738;50.422;18.758;2023-08-30T12:23:59;2.40;;;0.80;;
37903;SDS011;23738;50.422;18.758;2023-08-30T12:27:24;1.00;;;0.90;;
37903;SDS011;23738;50.422;18.758;2023-08-30T12:30:39;1.60;;;1.10;;
37903;SDS011;23738;50.422;18.758;2023-08-30T12:34:08;2.70;;;1.10;;
37903;SDS011;23738;50.422;18.758;2023-08-30T12:37:37;0.80;;;0.80;;
37903;SDS011;23738;50.422;18.758;2023-08-30T12:41:12;1.80;;;0.90;;
37903;SDS011;23738;50.422;18.758;2023-08-30T12:44:28;1.10;;;1.00;;
37903;SDS011;23738;50.422;18.758;2023-08-30T12:48:06;2.30;;;1.20;;
37903;SDS011;23738;50.422;18.758;2023-08-30T12:51:47;1.00;;;1.00;;
37903;SDS011;23738;50.422;18.758;2023-08-30T12:55:17;1.20;;;0.90;;
37903;SDS011;23738;50.422;18.758;2023-08-30T12:58:43;1.20;;;1.00;;
37903;SDS011;23738;50.422;18.758;2023-08-30T13:02:19;2.20;;;0.80;;
37903;SDS011;23738;50.422;18.758;2023-08-30T13:04:48;1.50;;;0.90;;
37903;SDS011;23738;50.422;18.758;2023-08-30T13:07:58;1.00;;;0.80;;
37903;SDS011;23738;50.422;18.758;2023-08-30T13:11:27;0.60;;;0.60;;
37903;SDS011;23738;50.422;18.758;2023-08-30T13:14:57;0.60;;;0.60;;
37903;SDS011;23738;50.422;18.758;2023-08-30T13:18:26;2.80;;;0.80;;
37903;SDS011;23738;50.422;18.758;2023-08-30T13:21:55;0.80;;;0.70;;
37903;SDS011;23738;50.422;18.758;2023-08-30T13:25:05;1.70;;;0.70;;
37903;SDS011;23738;50.422;18.758;2023-08-30T13:28:15;1.80;;;0.80;;
37903;SDS011;23738;50.422;18.758;2023-08-30T13:31:50;0.70;;;0.70;;
37903;SDS011;23738;50.422;18.758;2023-08-30T13:35:19;1.00;;;0.90;;
37903;SDS011;23738;50.422;18.758;2023-08-30T13:38:09;2.70;;;1.20;;
37903;SDS011;23738;50.422;18.758;2023-08-30T13:41:30;1.30;;;0.70;;
37903;SDS011;23738;50.422;18.758;2023-08-30T13:44:20;1.00;;;0.70;;
37903;SDS011;23738;50.422;18.758;2023-08-30T13:46:50;1.00;;;0.60;;
37903;SDS011;23738;50.422;18.758;2023-08-30T13:49:19;0.80;;;0.70;;
37903;SDS011;23738;50.422;18.758;2023-08-30T13:51:49;1.80;;;0.50;;
37903;SDS011;23738;50.422;18.758;2023-08-30T13:54:20;0.90;;;0.50;;
37903;SDS011;23738;50.422;18.758;2023-08-30T13:56:49;0.50;;;0.50;;
37903;SDS011;23738;50.422;18.758;2023-08-30T13:59:19;0.60;;;0.60;;
37903;SDS011;23738;50.422;18.758;2023-08-30T14:01:48;0.50;;;0.40;;
37903;SDS011;23738;50.422;18.758;2023-08-30T14:04:38;0.80;;;0.50;;
37903;SDS011;23738;50.422;18.758;2023-08-30T14:07:40;0.80;;;0.60;;
37903;SDS011;23738;50.422;18.758;2023-08-30T14:10:10;0.60;;;0.60;;
37903;SDS011;23738;50.422;18.758;2023-08-30T14:12:44;0.60;;;0.50;;
37903;SDS011;23738;50.422;18.758;2023-08-30T14:15:14;1.30;;;0.70;;
37903;SDS011;23738;50.422;18.758;2023-08-30T14:17:44;0.70;;;0.70;;
37903;SDS011;23738;50.422;18.758;2023-08-30T14:20:14;1.10;;;1.00;;
37903;SDS011;23738;50.422;18.758;2023-08-30T14:22:43;1.50;;;1.30;;
37903;SDS011;23738;50.422;18.758;2023-08-30T14:25:13;1.60;;;1.50;;
37903;SDS011;23738;50.422;18.758;2023-08-30T14:27:42;2.90;;;1.50;;
37903;SDS011;23738;50.422;18.758;2023-08-30T14:30:12;1.90;;;1.40;;
37903;SDS011;23738;50.422;18.758;2023-08-30T14:32:42;2.30;;;1.30;;
37903;SDS011;23738;50.422;18.758;2023-08-30T14:35:12;1.40;;;1.30;;
37903;SDS011;23738;50.422;18.758;2023-08-30T14:38:29;2.10;;;1.70;;
37903;SDS011;23738;50.422;18.758;2023-08-30T14:41:58;2.60;;;2.40;;
37903;SDS011;23738;50.422;18.758;2023-08-30T14:44:27;2.30;;;2.10;;
37903;SDS011;23738;50.422;18.758;2023-08-30T14:47:38;2.60;;;2.40;;
37903;SDS011;23738;50.422;18.758;2023-08-30T14:50:51;2.50;;;2.30;;
37903;SDS011;23738;50.422;18.758;2023-08-30T14:53:20;3.10;;;2.70;;
37903;SDS011;23738;50.422;18.758;2023-08-30T14:55:50;4.20;;;3.80;;
37903;SDS011;23738;50.422;18.758;2023-08-30T14:58:19;4.00;;;3.50;;
37903;SDS011;23738;50.422;18.758;2023-08-30T15:00:49;2.90;;;2.70;;
37903;SDS011;23738;50.422;18.758;2023-08-30T15:04:18;3.50;;;3.20;;
37903;SDS011;23738;50.422;18.758;2023-08-30T15:06:48;2.90;;;2.70;;
37903;SDS011;23738;50.422;18.758;2023-08-30T15:09:18;3.90;;;3.60;;
37903;SDS011;23738;50.422;18.758;2023-08-30T15:11:49;3.80;;;3.50;;
37903;SDS011;23738;50.422;18.758;2023-08-30T15:14:18;4.20;;;3.90;;
37903;SDS011;23738;50.422;18.758;2023-08-30T15:16:47;3.90;;;3.60;;
37903;SDS011;23738;50.422;18.758;2023-08-30T15:19:17;3.20;;;2.90;;
37903;SDS011;23738;50.422;18.758;2023-08-30T15:22:56;3.20;;;2.90;;
37903;SDS011;23738;50.422;18.758;2023-08-30T15:25:27;4.10;;;3.80;;
37903;SDS011;23738;50.422;18.758;2023-08-30T15:28:17;4.60;;;4.20;;
37903;SDS011;23738;50.422;18.758;2023-08-30T15:30:47;4.30;;;4.00;;
37903;SDS011;23738;50.422;18.758;2023-08-30T15:33:17;5.20;;;4.80;;
37903;SDS011;23738;50.422;18.758;2023-08-30T15:36:46;4.50;;;3.00;;
37903;SDS011;23738;50.422;18.758;2023-08-30T15:40:23;5.00;;;4.30;;
37903;SDS011;23738;50.422;18.758;2023-08-30T15:43:59;5.20;;;4.30;;
37903;SDS011;23738;50.422;18.758;2023-08-30T15:46:30;4.20;;;3.80;;
37903;SDS011;23738;50.422;18.758;2023-08-30T15:48:59;4.00;;;3.30;;
37903;SDS011;23738;50.422;18.758;2023-08-30T15:52:08;4.30;;;3.90;;
37903;SDS011;23738;50.422;18.758;2023-08-30T15:55:37;3.90;;;3.60;;
37903;SDS011;23738;50.422;18.758;2023-08-30T15:58:47;4.80;;;3.30;;
37903;SDS011;23738;50.422;18.758;2023-08-30T16:02:19;3.60;;;3.30;;
37903;SDS011;23738;50.422;18.758;2023-08-30T16:06:03;2.80;;;2.60;;
37903;SDS011;23738;50.422;18.758;2023-08-30T16:09:32;4.80;;;4.30;;
37903;SDS011;23738;50.422;18.758;2023-08-30T16:13:01;4.40;;;3.90;;
37903;SDS011;23738;50.422;18.758;2023-08-30T16:16:27;4.20;;;3.90;;
37903;SDS011;23738;50.422;18.758;2023-08-30T16:19:59;3.60;;;3.30;;
37903;SDS011;23738;50.422;18.758;2023-08-30T16:23:09;5.80;;;5.30;;
37903;SDS011;23738;50.422;18.758;2023-08-30T16:26:38;5.40;;;5.00;;
37903;SDS011;23738;50.422;18.758;2023-08-30T16:29:27;7.30;;;6.60;;
37903;SDS011;23738;50.422;18.758;2023-08-30T16:32:57;5.50;;;5.00;;
37903;SDS011;23738;50.422;18.758;2023-08-30T16:36:26;5.10;;;4.60;;
37903;SDS011;23738;50.422;18.758;2023-08-30T16:40:13;12.10;;;8.30;;
37903;SDS011;23738;50.422;18.758;2023-08-30T16:43:01;10.70;;;9.70;;
37903;SDS011;23738;50.422;18.758;2023-08-30T16:46:33;12.00;;;9.60;;
37903;SDS011;23738;50.422;18.758;2023-08-30T16:49:23;11.50;;;10.30;;
37903;SDS011;23738;50.422;18.758;2023-08-30T16:52:55;10.10;;;9.10;;
37903;SDS011;23738;50.422;18.758;2023-08-30T16:56:31;8.70;;;7.80;;
37903;SDS011;23738;50.422;18.758;2023-08-30T16:59:40;10.20;;;8.40;;
37903;SDS011;23738;50.422;18.758;2023-08-30T17:02:50;8.70;;;7.90;;
37903;SDS011;23738;50.422;18.758;2023-08-30T17:06:17;8.10;;;7.40;;
37903;SDS011;23738;50.422;18.758;2023-08-30T17:09:46;7.50;;;6.00;;
37903;SDS011;23738;50.422;18.758;2023-08-30T17:13:02;9.40;;;8.60;;
37903;SDS011;23738;50.422;18.758;2023-08-30T17:16:12;8.50;;;7.80;;
37903;SDS011;23738;50.422;18.758;2023-08-30T17:19:47;10.00;;;9.00;;
37903;SDS011;23738;50.422;18.758;2023-08-30T17:23:17;7.30;;;6.80;;
37903;SDS011;23738;50.422;18.758;2023-08-30T17:26:46;6.70;;;6.10;;
37903;SDS011;23738;50.422;18.758;2023-08-30T17:29:56;8.40;;;7.70;;
37903;SDS011;23738;50.422;18.758;2023-08-30T17:32:26;8.00;;;7.30;;
37903;SDS011;23738;50.422;18.758;2023-08-30T17:35:17;7.80;;;7.20;;
37903;SDS011;23738;50.422;18.758;2023-08-30T17:38:07;6.70;;;6.20;;
37903;SDS011;23738;50.422;18.758;2023-08-30T17:41:25;6.20;;;5.80;;
37903;SDS011;23738;50.422;18.758;2023-08-30T17:44:58;8.60;;;7.80;;
37903;SDS011;23738;50.422;18.758;2023-08-30T17:48:27;7.60;;;7.00;;
37903;SDS011;23738;50.422;18.758;2023-08-30T17:51:56;7.50;;;6.70;;
37903;SDS011;23738;50.422;18.758;2023-08-30T17:55:08;4.90;;;4.50;;
37903;SDS011;23738;50.422;18.758;2023-08-30T17:58:39;3.80;;;3.40;;
37903;SDS011;23738;50.422;18.758;2023-08-30T18:02:15;5.40;;;4.90;;
37903;SDS011;23738;50.422;18.758;2023-08-30T18:05:44;5.10;;;4.70;;
37903;SDS011;23738;50.422;18.758;2023-08-30T18:08:53;4.10;;;3.80;;
37903;SDS011;23738;50.422;18.758;2023-08-30T18:12:04;4.10;;;3.40;;
37903;SDS011;23738;50.422;18.758;2023-08-30T18:15:39;6.50;;;4.00;;
37903;SDS011;23738;50.422;18.758;2023-08-30T18:19:08;4.30;;;3.90;;
37903;SDS011;23738;50.422;18.758;2023-08-30T18:22:37;4.40;;;3.90;;
37903;SDS011;23738;50.422;18.758;2023-08-30T18:26:06;3.50;;;3.20;;
37903;SDS011;23738;50.422;18.758;2023-08-30T18:29:36;2.90;;;2.70;;
37903;SDS011;23738;50.422;18.758;2023-08-30T18:33:08;6.00;;;3.50;;
37903;SDS011;23738;50.422;18.758;2023-08-30T18:36:37;4.00;;;3.70;;
37903;SDS011;23738;50.422;18.758;2023-08-30T18:40:10;4.80;;;4.40;;
37903;SDS011;23738;50.422;18.758;2023-08-30T18:43:39;2.90;;;2.60;;
37903;SDS011;23738;50.422;18.758;2023-08-30T18:47:08;3.10;;;2.80;;
37903;SDS011;23738;50.422;18.758;2023-08-30T18:50:47;3.80;;;3.50;;
37903;SDS011;23738;50.422;18.758;2023-08-30T18:54:16;5.00;;;3.40;;
37903;SDS011;23738;50.422;18.758;2023-08-30T18:57:45;4.40;;;4.00;;
37903;SDS011;23738;50.422;18.758;2023-08-30T19:01:14;6.50;;;3.10;;
37903;SDS011;23738;50.422;18.758;2023-08-30T19:04:24;2.70;;;2.50;;
37903;SDS011;23738;50.422;18.758;2023-08-30T19:06:53;3.10;;;2.80;;
37903;SDS011;23738;50.422;18.758;2023-08-30T19:09:22;5.30;;;3.30;;
37903;SDS011;23738;50.422;18.758;2023-08-30T19:13:04;3.80;;;3.40;;
37903;SDS011;23738;50.422;18.758;2023-08-30T19:16:34;6.10;;;3.40;;
37903;SDS011;23738;50.422;18.758;2023-08-30T19:20:04;3.70;;;3.40;;
37903;SDS011;23738;50.422;18.758;2023-08-30T19:22:55;5.90;;;3.80;;
37903;SDS011;23738;50.422;18.758;2023-08-30T19:25:45;5.30;;;4.80;;
37903;SDS011;23738;50.422;18.758;2023-08-30T19:29:15;5.00;;;4.60;;